createdAt,value
2018-05-02T00:01:54.387Z,5.75
2018-05-02T00:04:21.825Z,6.50
2018-05-02T00:06:49.305Z,5.40
2018-05-02T00:09:16.731Z,5.90
2018-05-02T00:11:44.182Z,5.80
2018-05-02T00:14:11.637Z,5.45
2018-05-02T00:16:39.095Z,5.25
2018-05-02T00:19:06.518Z,5.32
2018-05-02T00:21:33.974Z,5.72
2018-05-02T00:24:01.410Z,5.72
2018-05-02T00:26:28.865Z,6.28
2018-05-02T00:28:57.071Z,5.22
2018-05-02T00:31:24.536Z,5.40
2018-05-02T00:33:52.020Z,5.90
2018-05-02T00:36:20.240Z,6.25
2018-05-02T00:38:47.770Z,5.72
2018-05-02T00:41:15.228Z,6.37
2018-05-02T00:43:42.670Z,6.30
2018-05-02T00:46:10.194Z,6.25
2018-05-02T00:48:49.379Z,6.32
2018-05-02T00:51:16.838Z,7.03
2018-05-02T00:53:45.090Z,7.00
2018-05-02T00:56:12.535Z,8.10
2018-05-02T00:58:40.015Z,5.95
2018-05-02T01:01:07.444Z,7.40
2018-05-02T01:03:35.742Z,7.25
2018-05-02T01:06:03.193Z,7.40
2018-05-02T01:08:30.653Z,7.93
2018-05-02T01:10:58.093Z,7.12
2018-05-02T01:13:25.555Z,6.85
2018-05-02T01:15:53.011Z,7.45
2018-05-02T01:18:20.474Z,7.47
2018-05-02T01:20:47.928Z,5.93
2018-05-02T01:23:15.394Z,7.35
2018-05-02T01:25:42.839Z,7.28
2018-05-02T01:28:11.807Z,7.15
2018-05-02T01:30:39.247Z,9.30
2018-05-02T01:33:06.697Z,6.90
2018-05-02T01:35:34.212Z,8.25
2018-05-02T01:38:03.252Z,6.32
2018-05-02T01:40:30.709Z,7.50
2018-05-02T01:42:58.148Z,6.72
2018-05-02T01:45:26.390Z,7.93
2018-05-02T01:47:53.844Z,7.30
2018-05-02T01:50:21.304Z,6.95
2018-05-02T01:52:48.808Z,6.40
2018-05-02T01:55:16.250Z,6.95
2018-05-02T01:57:43.696Z,7.07
2018-05-02T02:00:11.934Z,6.70
2018-05-02T02:02:39.414Z,5.62
2018-05-02T02:05:07.667Z,6.43
2018-05-02T02:07:35.098Z,7.00
2018-05-02T02:10:02.569Z,6.65
2018-05-02T02:12:29.999Z,6.12
2018-05-02T02:14:57.464Z,6.75
2018-05-02T02:17:24.911Z,7.00
2018-05-02T02:19:52.369Z,6.72
2018-05-02T02:22:19.809Z,6.32
2018-05-02T02:24:48.018Z,6.15
2018-05-02T02:27:15.446Z,5.50
2018-05-02T02:29:42.902Z,6.70
2018-05-02T02:32:10.363Z,6.62
2018-05-02T02:34:37.808Z,6.40
2018-05-02T02:37:05.273Z,6.90
2018-05-02T02:39:32.735Z,6.10
2018-05-02T02:42:00.204Z,6.12
2018-05-02T02:44:27.634Z,6.35
2018-05-02T02:46:55.092Z,5.53
2018-05-02T02:49:22.587Z,6.80
2018-05-02T02:51:50.062Z,4.90
2018-05-02T02:54:17.515Z,5.80
2018-05-02T02:56:44.996Z,5.60
2018-05-02T02:59:12.455Z,6.05
2018-05-02T03:01:40.685Z,6.47
2018-05-02T03:04:08.218Z,5.70
2018-05-02T03:06:35.686Z,6.40
2018-05-02T03:09:03.156Z,6.18
2018-05-02T03:11:30.648Z,5.90
2018-05-02T03:13:58.114Z,5.82
2018-05-02T03:16:26.334Z,6.80
2018-05-02T03:18:53.798Z,5.72
2018-05-02T03:21:21.236Z,6.00
2018-05-02T03:23:48.695Z,5.97
2018-05-02T03:26:16.125Z,5.80
2018-05-02T03:28:43.593Z,5.47
2018-05-02T03:31:11.042Z,5.95
2018-05-02T03:33:38.509Z,6.05
2018-05-02T03:36:05.977Z,5.05
2018-05-02T03:38:33.436Z,6.15
2018-05-02T03:41:00.888Z,5.40
2018-05-02T03:43:28.531Z,6.00
2018-05-02T03:45:55.980Z,6.15
2018-05-02T03:48:23.447Z,6.32
2018-05-02T03:50:50.914Z,6.37
2018-05-02T03:53:18.388Z,5.70
2018-05-02T03:55:45.839Z,6.75
2018-05-02T03:58:14.222Z,5.97
2018-05-02T04:04:07.100Z,6.05
2018-05-02T04:07:01.461Z,5.53
2018-05-02T04:09:28.915Z,6.10
2018-05-02T04:11:56.385Z,5.93
2018-05-02T04:14:24.585Z,6.32
2018-05-02T04:16:52.050Z,6.00
2018-05-02T04:19:20.252Z,6.25
2018-05-02T04:21:48.444Z,5.95
2018-05-02T04:24:15.870Z,6.57
2018-05-02T04:26:43.378Z,6.85
2018-05-02T04:29:11.593Z,5.80
2018-05-02T04:31:39.550Z,6.12
2018-05-02T04:34:07.775Z,5.82
2018-05-02T04:36:35.210Z,5.20
2018-05-02T04:39:03.430Z,5.80
2018-05-02T04:41:30.891Z,5.05
2018-05-02T04:43:58.378Z,5.70
2018-05-02T04:46:25.822Z,6.45
2018-05-02T04:48:53.286Z,6.03
2018-05-02T04:51:20.731Z,5.25
2018-05-02T04:53:48.225Z,5.78
2018-05-02T04:56:15.650Z,5.50
2018-05-02T04:58:46.056Z,5.32
2018-05-02T05:01:13.804Z,5.82
2018-05-02T05:03:41.402Z,5.22
2018-05-02T05:06:09.352Z,5.43
2018-05-02T05:08:36.996Z,7.37
2018-05-02T05:11:04.872Z,5.00
2018-05-02T05:13:32.489Z,5.55
2018-05-02T05:16:00.197Z,5.30
2018-05-02T05:18:28.035Z,5.32
2018-05-02T05:20:55.676Z,6.53
2018-05-02T05:23:23.488Z,5.80
2018-05-02T05:25:51.158Z,5.22
2018-05-02T05:28:18.962Z,4.85
2018-05-02T05:30:47.338Z,5.90
2018-05-02T05:33:15.082Z,5.25
2018-05-02T05:35:43.013Z,5.60
2018-05-02T05:38:10.871Z,5.35
2018-05-02T05:40:39.267Z,5.90
2018-05-02T05:43:07.731Z,5.30
2018-05-02T05:45:36.130Z,5.35
2018-05-02T05:48:04.168Z,5.72
2018-05-02T05:50:32.445Z,5.45
2018-05-02T05:53:00.840Z,5.12
2018-05-02T05:55:29.175Z,5.68
2018-05-02T05:57:56.666Z,5.35
2018-05-02T06:00:24.300Z,5.28
2018-05-02T06:02:51.972Z,5.57
2018-05-02T06:05:19.765Z,4.95
2018-05-02T06:07:47.321Z,5.03
2018-05-02T06:10:14.864Z,5.10
2018-05-02T06:12:42.415Z,5.40
2018-05-02T06:15:09.840Z,4.70
2018-05-02T06:17:37.400Z,5.25
2018-05-02T06:20:04.920Z,4.60
2018-05-02T06:22:32.599Z,5.00
2018-05-02T06:25:01.055Z,6.43
2018-05-02T06:27:30.146Z,5.65
2018-05-02T06:29:57.730Z,5.28
2018-05-02T06:32:25.300Z,5.72
2018-05-02T06:34:53.675Z,5.37
2018-05-02T06:37:22.123Z,5.80
2018-05-02T06:39:49.742Z,6.00
2018-05-02T06:42:17.248Z,7.00
2018-05-02T06:44:45.483Z,5.47
2018-05-02T06:47:13.058Z,5.20
2018-05-02T06:49:41.015Z,5.70
2018-05-02T06:52:08.561Z,5.60
2018-05-02T06:54:36.221Z,4.67
2018-05-02T06:57:03.863Z,5.10
2018-05-02T06:59:58.316Z,4.70
2018-05-02T07:02:48.123Z,6.40
2018-05-02T07:05:16.029Z,5.43
2018-05-02T07:07:43.722Z,6.73
2018-05-02T07:10:11.275Z,4.47
2018-05-02T07:12:38.880Z,5.67
2018-05-02T07:15:07.160Z,4.40
2018-05-02T07:17:34.585Z,5.10
2018-05-02T07:20:02.051Z,4.90
2018-05-02T07:22:30.263Z,5.40
2018-05-02T07:24:57.732Z,4.53
2018-05-02T07:27:25.195Z,5.20
2018-05-02T07:29:52.670Z,4.90
2018-05-02T07:32:20.130Z,5.00
2018-05-02T07:34:47.613Z,4.83
2018-05-02T07:37:19.650Z,8.60
2018-05-02T07:39:47.291Z,6.50
2018-05-02T07:42:15.212Z,5.23
2018-05-02T07:44:42.719Z,5.00
2018-05-02T07:47:10.173Z,5.10
2018-05-02T07:49:37.667Z,5.17
2018-05-02T07:52:05.897Z,4.97
2018-05-02T07:54:33.399Z,5.07
2018-05-02T07:57:01.361Z,5.80
2018-05-02T07:59:28.916Z,4.40
2018-05-02T08:01:56.481Z,4.97
2018-05-02T08:04:24.312Z,6.40
2018-05-02T08:06:52.116Z,4.87
2018-05-02T08:09:19.879Z,4.30
2018-05-02T08:11:47.547Z,5.10
2018-05-02T08:14:15.098Z,4.80
2018-05-02T08:16:43.529Z,4.17
2018-05-02T08:19:15.040Z,5.37
2018-05-02T08:21:43.321Z,5.40
2018-05-02T08:24:10.843Z,5.13
2018-05-02T08:26:38.348Z,4.87
2018-05-02T08:29:05.813Z,4.83
2018-05-02T08:31:33.850Z,5.80
2018-05-02T08:34:02.086Z,5.43
2018-05-02T08:36:29.549Z,5.47
2018-05-02T08:38:57.055Z,5.30
2018-05-02T08:41:24.470Z,5.70
2018-05-02T08:43:52.705Z,5.23
2018-05-02T08:46:20.207Z,4.80
2018-05-02T08:48:47.693Z,5.20
2018-05-02T08:51:15.107Z,5.30
2018-05-02T08:53:42.564Z,5.33
2018-05-02T08:56:10.138Z,5.23
2018-05-02T08:58:37.591Z,4.77
2018-05-02T09:01:05.062Z,5.40
2018-05-02T09:03:32.560Z,5.37
2018-05-02T09:06:00.071Z,5.13
2018-05-02T09:08:28.313Z,5.03
2018-05-02T09:10:55.770Z,5.40
2018-05-02T09:13:24.018Z,5.87
2018-05-02T09:15:51.464Z,6.10
2018-05-02T09:18:18.940Z,5.13
2018-05-02T09:20:47.174Z,5.30
2018-05-02T09:23:14.628Z,4.70
2018-05-02T09:25:42.873Z,5.27
2018-05-02T09:28:10.328Z,5.70
2018-05-02T09:30:37.788Z,5.20
2018-05-02T09:33:05.232Z,5.07
2018-05-02T09:35:32.766Z,5.80
2018-05-02T09:38:00.151Z,5.90
2018-05-02T09:40:27.599Z,5.37
2018-05-02T09:42:55.079Z,6.07
2018-05-02T09:45:22.623Z,5.47
2018-05-02T09:47:50.080Z,5.67
2018-05-02T09:50:17.524Z,5.60
2018-05-02T09:52:44.998Z,5.17
2018-05-02T09:55:12.459Z,4.87
2018-05-02T09:57:39.928Z,4.73
2018-05-02T10:00:07.471Z,4.90
2018-05-02T10:02:34.986Z,4.90
2018-05-02T10:05:02.462Z,5.30
2018-05-02T10:07:29.933Z,4.40
2018-05-02T10:09:57.379Z,5.13
2018-05-02T10:12:24.907Z,4.30
2018-05-02T10:14:52.308Z,4.90
2018-05-02T10:17:19.799Z,4.93
2018-05-02T10:19:48.045Z,5.00
2018-05-02T10:22:15.505Z,5.30
2018-05-02T10:24:42.971Z,4.40
2018-05-02T10:27:10.483Z,4.10
2018-05-02T10:29:37.932Z,4.60
2018-05-02T10:32:05.498Z,4.30
2018-05-02T10:34:32.938Z,4.13
2018-05-02T10:37:00.556Z,4.33
2018-05-02T10:39:28.679Z,4.57
2018-05-02T10:41:56.190Z,4.70
2018-05-02T10:44:23.655Z,4.30
2018-05-02T10:46:51.933Z,7.17
2018-05-02T10:49:19.679Z,4.93
2018-05-02T10:51:47.213Z,4.50
2018-05-02T10:54:14.651Z,4.00
2018-05-02T10:56:42.120Z,4.03
2018-05-02T10:59:09.587Z,4.20
2018-05-02T11:01:37.064Z,5.03
2018-05-02T11:04:05.306Z,4.53
2018-05-02T11:06:32.782Z,4.03
2018-05-02T11:09:00.231Z,4.80
2018-05-02T11:11:27.706Z,3.93
2018-05-02T11:13:55.960Z,4.10
2018-05-02T11:16:23.425Z,4.13
2018-05-02T11:18:50.899Z,3.80
2018-05-02T11:21:19.142Z,4.27
2018-05-02T11:23:46.625Z,4.00
2018-05-02T11:26:14.161Z,4.50
2018-05-02T11:28:41.688Z,4.60
2018-05-02T11:31:09.169Z,4.57
2018-05-02T11:33:36.634Z,3.70
2018-05-02T11:36:04.958Z,3.83
2018-05-02T11:38:33.176Z,3.90
2018-05-02T11:41:00.723Z,4.33
2018-05-02T11:43:29.314Z,4.50
2018-05-02T11:45:57.175Z,4.40
2018-05-02T11:48:24.796Z,3.67
2018-05-02T11:50:58.347Z,4.13
2018-05-02T11:53:28.155Z,4.90
2018-05-02T11:55:56.223Z,4.00
2018-05-02T11:58:24.249Z,3.27
2018-05-02T12:00:52.788Z,3.70
2018-05-02T12:03:21.294Z,3.57
2018-05-02T12:05:52.669Z,3.70
2018-05-02T12:08:20.417Z,2.97
2018-05-02T12:10:48.996Z,4.03
2018-05-02T12:13:16.915Z,2.97
2018-05-02T12:15:44.635Z,3.80
2018-05-02T12:18:14.728Z,3.10
2018-05-02T12:20:42.467Z,2.67
2018-05-02T12:23:10.577Z,3.23
2018-05-02T12:25:38.422Z,3.60
2018-05-02T12:28:06.478Z,3.07
2018-05-02T12:30:34.410Z,3.33
2018-05-02T12:33:07.024Z,3.70
2018-05-02T12:35:35.506Z,3.00
2018-05-02T12:38:08.707Z,3.30
2018-05-02T12:40:56.184Z,3.30
2018-05-02T12:43:32.691Z,2.57
2018-05-02T12:46:02.935Z,2.90
2018-05-02T12:51:27.553Z,3.30
2018-05-02T12:53:59.129Z,2.70
2018-05-02T12:56:34.328Z,2.57
2018-05-02T12:59:08.538Z,2.80
2018-05-02T13:18:17.408Z,2.60
2018-05-02T13:20:46.870Z,2.50
2018-05-02T13:23:14.465Z,3.60
2018-05-02T13:25:50.695Z,2.93
2018-05-02T13:28:39.511Z,2.70
2018-05-02T13:31:09.320Z,3.30
2018-05-02T13:33:38.157Z,2.80
2018-05-02T13:36:06.135Z,3.30
2018-05-02T13:38:33.595Z,3.40
2018-05-02T13:41:01.076Z,3.43
2018-05-02T13:43:29.051Z,3.00
2018-05-02T13:45:56.555Z,3.30
2018-05-02T13:48:24.034Z,3.00
2018-05-02T13:50:51.518Z,2.53
2018-05-02T13:53:19.810Z,3.07
2018-05-02T13:55:47.228Z,3.43
2018-05-02T13:58:15.512Z,2.90
2018-05-02T14:00:42.995Z,3.13
2018-05-02T14:03:10.468Z,3.20
2018-05-02T14:05:37.970Z,3.17
2018-05-02T14:08:05.511Z,2.80
2018-05-02T14:10:32.915Z,3.67
2018-05-02T14:13:00.382Z,2.70
2018-05-02T14:15:27.877Z,3.33
2018-05-02T14:17:55.345Z,3.00
2018-05-02T14:20:22.796Z,3.10
2018-05-02T14:22:50.825Z,2.70
2018-05-02T14:25:18.284Z,3.93
2018-05-02T14:27:46.246Z,3.20
2018-05-02T14:30:13.745Z,2.93
2018-05-02T14:32:41.273Z,2.40
2018-05-02T14:35:09.478Z,2.80
2018-05-02T14:37:36.971Z,2.77
2018-05-02T14:40:04.436Z,3.30
2018-05-02T14:42:31.979Z,2.87
2018-05-02T14:45:00.289Z,2.80
2018-05-02T14:47:27.773Z,2.67
2018-05-02T14:49:55.210Z,2.80
2018-05-02T14:52:22.700Z,2.43
2018-05-02T14:54:50.925Z,2.77
2018-05-02T14:57:18.755Z,2.20
2018-05-02T14:59:46.210Z,2.87
2018-05-02T15:02:13.741Z,2.90
2018-05-02T15:04:41.185Z,3.47
2018-05-02T15:07:08.703Z,2.50
2018-05-02T15:09:36.916Z,2.53
2018-05-02T15:12:04.446Z,2.93
2018-05-02T15:14:32.685Z,3.10
2018-05-02T15:17:00.185Z,2.57
2018-05-02T15:19:27.719Z,2.30
2018-05-02T15:21:55.954Z,2.90
2018-05-02T15:24:23.386Z,2.53
2018-05-02T15:26:50.854Z,2.17
2018-05-02T15:29:18.918Z,2.60
2018-05-02T15:31:47.176Z,2.23
2018-05-02T15:34:15.447Z,2.23
2018-05-02T15:36:42.916Z,2.80
2018-05-02T15:39:10.392Z,2.50
2018-05-02T15:41:37.892Z,2.37
2018-05-02T15:44:05.352Z,2.50
2018-05-02T15:46:32.851Z,2.20
2018-05-02T15:49:04.496Z,2.50
2018-05-02T15:51:31.954Z,1.90
2018-05-02T15:53:59.421Z,2.40
2018-05-02T15:56:27.663Z,2.17
2018-05-02T15:58:55.198Z,2.50
2018-05-02T16:01:22.688Z,2.27
2018-05-02T16:03:50.238Z,2.00
2018-05-02T16:06:18.443Z,1.63
2018-05-02T16:08:45.981Z,2.00
2018-05-02T16:11:13.459Z,1.90
2018-05-02T16:13:40.993Z,1.83
2018-05-02T16:16:08.463Z,1.57
2018-05-02T16:18:35.942Z,1.90
2018-05-02T16:21:03.477Z,2.03
2018-05-02T16:23:31.741Z,1.70
2018-05-02T16:26:06.929Z,2.07
2018-05-02T16:28:35.179Z,1.70
2018-05-02T16:31:02.649Z,1.37
2018-05-02T16:33:30.173Z,1.70
2018-05-02T16:35:59.327Z,1.57
2018-05-02T16:38:26.799Z,1.73
2018-05-02T16:40:54.338Z,1.47
2018-05-02T16:43:21.836Z,1.40
2018-05-02T16:45:49.500Z,1.73
2018-05-02T16:48:16.969Z,1.77
2018-05-02T16:50:45.303Z,2.27
2018-05-02T16:53:12.789Z,1.97
2018-05-02T16:55:40.248Z,1.70
2018-05-02T16:58:07.766Z,2.10
2018-05-02T17:00:39.222Z,2.20
2018-05-02T17:03:06.764Z,2.33
2018-05-02T17:05:34.252Z,2.20
2018-05-02T17:08:01.754Z,1.90
2018-05-02T17:10:29.182Z,2.10
2018-05-02T17:12:56.665Z,2.00
2018-05-02T17:15:30.221Z,2.23
2018-05-02T17:17:57.778Z,1.83
2018-05-02T17:20:25.520Z,2.67
2018-05-02T17:22:52.997Z,2.20
2018-05-02T17:25:20.548Z,3.20
2018-05-02T17:27:48.925Z,2.50
2018-05-02T17:30:16.472Z,3.87
2018-05-02T17:32:43.975Z,2.80
2018-05-02T17:35:11.466Z,2.87
2018-05-02T17:37:38.943Z,3.00
2018-05-02T17:40:06.458Z,2.60
2018-05-02T17:42:33.955Z,2.60
2018-05-02T17:45:02.428Z,2.47
2018-05-02T17:47:29.909Z,2.90
2018-05-02T17:49:57.732Z,2.63
2018-05-02T17:52:25.977Z,2.77
2018-05-02T17:54:53.513Z,2.33
2018-05-02T17:57:26.277Z,2.73
2018-05-02T17:59:53.784Z,2.73
2018-05-02T18:02:21.323Z,3.70
2018-05-02T18:04:48.847Z,2.57
2018-05-02T18:07:16.335Z,2.73
2018-05-02T18:09:44.568Z,3.17
2018-05-02T18:12:12.148Z,2.93
2018-05-02T18:14:40.430Z,2.77
2018-05-02T18:17:11.783Z,2.83
2018-05-02T18:19:40.112Z,2.97
2018-05-02T18:22:07.594Z,3.80
2018-05-02T18:24:35.672Z,3.60
2018-05-02T18:27:04.115Z,3.30
2018-05-02T18:29:31.896Z,3.10
2018-05-02T18:32:09.683Z,3.07
2018-05-02T18:34:37.234Z,3.23
2018-05-02T18:37:04.713Z,3.40
2018-05-02T18:39:36.925Z,2.57
2018-05-02T18:42:04.426Z,2.60
2018-05-02T18:44:31.988Z,2.70
2018-05-02T18:46:59.466Z,2.40
2018-05-02T18:49:26.947Z,2.77
2018-05-02T18:51:54.474Z,2.73
2018-05-02T18:54:27.796Z,2.83
2018-05-02T18:56:55.310Z,4.20
2018-05-02T18:59:22.819Z,4.93
2018-05-02T19:01:51.009Z,3.90
2018-05-02T19:04:18.675Z,4.47
2018-05-02T19:06:46.170Z,3.93
2018-05-02T19:09:13.658Z,5.30
2018-05-02T19:11:41.179Z,4.50
2018-05-02T19:14:08.702Z,4.37
2018-05-02T19:16:36.198Z,4.40
2018-05-02T19:19:09.441Z,3.70
2018-05-02T19:21:36.918Z,3.60
2018-05-02T19:24:04.514Z,3.80
2018-05-02T19:26:38.469Z,4.20
2018-05-02T19:29:07.965Z,3.63
2018-05-02T19:37:29.082Z,3.80
2018-05-02T19:51:25.741Z,3.90
2018-05-02T19:53:53.244Z,3.20
2018-05-02T19:56:20.754Z,3.60
2018-05-02T19:58:48.356Z,4.00
2018-05-02T20:01:21.505Z,4.50
2018-05-02T20:03:49.011Z,4.93
2018-05-02T20:06:16.602Z,3.97
2018-05-02T20:08:50.432Z,3.53
2018-05-02T20:11:23.860Z,3.17
2018-05-02T20:13:58.351Z,4.00
2018-05-02T20:16:26.335Z,3.97
2018-05-02T20:18:54.612Z,3.70
2018-05-02T20:21:22.950Z,3.80
2018-05-02T20:23:50.456Z,3.43
2018-05-02T20:26:17.959Z,3.80
2018-05-02T20:28:45.497Z,4.40
2018-05-02T20:31:13.056Z,4.57
2018-05-02T20:33:40.697Z,4.10
2018-05-02T20:36:08.311Z,3.53
2018-05-02T20:38:35.914Z,4.00
2018-05-02T20:41:03.484Z,3.80
2018-05-02T20:43:30.998Z,3.93
2018-05-02T20:45:58.535Z,4.30
2018-05-02T20:48:26.033Z,4.27
2018-05-02T20:50:54.302Z,4.70
2018-05-02T20:53:22.532Z,3.90
2018-05-02T20:55:49.978Z,4.27
2018-05-02T20:58:17.478Z,4.30
2018-05-02T21:00:44.945Z,5.00
2018-05-02T21:03:13.192Z,4.10
2018-05-02T21:05:40.644Z,3.80
2018-05-02T21:08:08.168Z,4.73
2018-05-02T21:10:35.643Z,4.60
2018-05-02T21:13:03.081Z,4.63
2018-05-02T21:15:30.516Z,3.97
2018-05-02T21:17:58.010Z,4.07
2018-05-02T21:20:25.467Z,4.10
2018-05-02T21:22:52.940Z,4.20
2018-05-02T21:25:20.486Z,4.50
2018-05-02T21:27:47.957Z,4.97
2018-05-02T21:30:15.422Z,4.80
2018-05-02T21:32:43.638Z,4.03
2018-05-02T21:35:11.107Z,4.30
2018-05-02T21:37:38.539Z,4.03
2018-05-02T21:40:05.995Z,4.23
2018-05-02T21:42:33.497Z,4.47
2018-05-02T21:45:01.003Z,4.40
2018-05-02T21:47:28.447Z,4.70
2018-05-02T21:49:55.906Z,4.00
2018-05-02T21:52:23.359Z,4.43
2018-05-02T21:54:50.843Z,4.00
2018-05-02T21:57:18.376Z,4.37
2018-05-02T21:59:45.928Z,4.20
2018-05-02T22:02:13.370Z,4.53
2018-05-02T22:04:40.811Z,3.90
2018-05-02T22:07:08.287Z,4.70
2018-05-02T22:09:35.749Z,3.90
2018-05-02T22:12:03.235Z,4.18
2018-05-02T22:14:30.722Z,4.12
2018-05-02T22:16:58.185Z,4.60
2018-05-02T22:19:26.564Z,4.43
2018-05-02T22:21:54.083Z,4.90
2018-05-02T22:24:21.621Z,4.47
2018-05-02T22:26:49.177Z,3.83
2018-05-02T22:29:16.638Z,4.00
2018-05-02T22:31:44.203Z,4.07
2018-05-02T22:34:12.666Z,3.80
2018-05-02T22:36:40.151Z,4.03
2018-05-02T22:39:07.699Z,4.00
2018-05-02T22:41:35.166Z,3.90
2018-05-02T22:44:03.408Z,3.80
2018-05-02T22:46:30.863Z,3.60
2018-05-02T22:48:58.339Z,3.80
2018-05-02T22:51:29.763Z,3.90
2018-05-02T22:53:57.258Z,3.55
2018-05-02T22:56:25.494Z,3.50
2018-05-02T22:58:52.975Z,4.10
2018-05-02T23:01:20.423Z,3.13
2018-05-02T23:03:47.916Z,3.63
2018-05-02T23:06:15.354Z,3.93
2018-05-02T23:08:43.594Z,3.10
2018-05-02T23:11:11.079Z,3.00
2018-05-02T23:13:39.347Z,2.70
2018-05-02T23:16:07.558Z,3.33
2018-05-02T23:18:35.048Z,3.43
2018-05-02T23:21:02.507Z,3.12
2018-05-02T23:23:29.982Z,3.83
2018-05-02T23:25:57.445Z,3.35
2018-05-02T23:28:24.895Z,2.85
2018-05-02T23:30:52.350Z,3.33
2018-05-02T23:33:19.811Z,3.15
2018-05-02T23:35:48.051Z,3.10
2018-05-02T23:38:15.494Z,3.20
2018-05-02T23:40:42.978Z,2.90
2018-05-02T23:43:10.459Z,3.78
2018-05-02T23:45:38.691Z,3.33
2018-05-02T23:48:06.143Z,2.63
2018-05-02T23:50:33.647Z,2.95
2018-05-02T23:53:01.859Z,3.22
2018-05-02T23:55:29.327Z,3.07
2018-05-02T23:57:56.783Z,3.40
